createdAt,value
2019-02-18T00:00:43.480Z,369.73
2019-02-18T00:03:15.281Z,389.20
2019-02-18T00:05:46.951Z,440.30
2019-02-18T00:08:18.748Z,474.27
2019-02-18T00:10:50.668Z,397.77
2019-02-18T00:13:22.266Z,353.07
2019-02-18T00:15:55.408Z,422.17
2019-02-18T00:18:27.123Z,382.37
2019-02-18T00:20:58.829Z,384.17
2019-02-18T00:23:30.479Z,389.40
2019-02-18T00:26:02.213Z,389.57
2019-02-18T00:28:34.049Z,376.93
2019-02-18T00:31:05.668Z,384.80
2019-02-18T00:33:37.295Z,352.70
2019-02-18T00:36:09.051Z,329.27
2019-02-18T00:38:40.976Z,332.00
2019-02-18T00:41:12.608Z,340.27
2019-02-18T00:43:44.252Z,268.93
2019-02-18T00:46:15.865Z,305.53
2019-02-18T00:48:47.560Z,310.80
2019-02-18T00:51:20.488Z,322.80
2019-02-18T00:53:52.087Z,295.53
2019-02-18T00:56:23.697Z,293.00
2019-02-18T00:58:55.330Z,287.43
2019-02-18T01:01:26.956Z,278.10
2019-02-18T01:03:58.583Z,294.53
2019-02-18T01:06:30.268Z,354.47
2019-02-18T01:09:01.884Z,294.73
2019-02-18T01:11:35.155Z,290.10
2019-02-18T01:14:06.789Z,261.33
2019-02-18T01:16:38.468Z,273.60
2019-02-18T01:19:10.330Z,276.40
2019-02-18T01:21:43.455Z,264.00
2019-02-18T01:24:19.823Z,280.23
2019-02-18T01:26:52.871Z,261.40
2019-02-18T01:29:25.948Z,262.13
2019-02-18T01:31:59.983Z,253.20
2019-02-18T01:34:33.060Z,266.97
2019-02-18T01:37:06.133Z,266.70
2019-02-18T01:39:37.864Z,262.47
2019-02-18T01:42:09.584Z,272.03
2019-02-18T01:44:41.395Z,275.80
2019-02-18T01:47:13.073Z,261.27
2019-02-18T01:49:44.765Z,256.13
2019-02-18T01:52:16.475Z,262.00
2019-02-18T01:54:48.166Z,254.43
2019-02-18T01:57:19.774Z,237.70
2019-02-18T01:59:51.378Z,246.70
2019-02-18T02:02:22.996Z,232.30
2019-02-18T02:04:54.605Z,240.73
2019-02-18T02:07:26.208Z,241.80
2019-02-18T02:09:57.898Z,251.63
2019-02-18T02:12:29.570Z,229.40
2019-02-18T02:15:01.178Z,227.67
2019-02-18T02:17:33.841Z,233.57
2019-02-18T02:20:05.793Z,231.83
2019-02-18T02:22:37.475Z,213.70
2019-02-18T02:25:09.095Z,240.60
2019-02-18T02:27:41.011Z,220.53
2019-02-18T02:30:12.817Z,221.10
2019-02-18T02:32:44.484Z,214.03
2019-02-18T02:35:16.112Z,214.90
2019-02-18T02:37:47.717Z,218.00
2019-02-18T02:40:19.331Z,216.30
2019-02-18T02:42:50.990Z,223.03
2019-02-18T02:45:22.652Z,224.40
2019-02-18T02:47:54.260Z,224.53
2019-02-18T02:50:25.891Z,221.33
2019-02-18T02:52:57.537Z,386.67
2019-02-18T02:55:29.116Z,557.13
2019-02-18T02:58:00.713Z,425.70
2019-02-18T03:00:32.331Z,366.53
2019-02-18T03:03:03.946Z,273.53
2019-02-18T03:05:35.670Z,258.63
2019-02-18T03:08:19.343Z,243.53
2019-02-18T03:10:40.591Z,248.90
2019-02-18T03:13:12.176Z,287.80
2019-02-18T03:15:44.189Z,270.77
2019-02-18T03:18:15.858Z,329.80
2019-02-18T03:20:48.441Z,313.90
2019-02-18T03:23:20.117Z,288.80
2019-02-18T03:25:53.315Z,256.10
2019-02-18T03:29:23.788Z,242.17
2019-02-18T03:31:55.419Z,194.77
2019-02-18T03:34:53.641Z,376.43
2019-02-18T03:37:25.258Z,299.07
2019-02-18T03:39:56.865Z,316.83
2019-02-18T03:42:28.461Z,290.10
2019-02-18T03:45:00.098Z,272.97
2019-02-18T03:47:31.918Z,250.23
2019-02-18T03:50:03.511Z,280.90
2019-02-18T03:52:35.196Z,269.87
2019-02-18T03:55:07.328Z,221.83
2019-02-18T03:57:39.091Z,221.90
2019-02-18T04:00:11.028Z,253.87
2019-02-18T04:02:42.683Z,259.67
2019-02-18T04:05:14.282Z,273.10
2019-02-18T04:07:45.890Z,292.97
2019-02-18T04:10:17.494Z,263.43
2019-02-18T04:12:49.153Z,274.10
2019-02-18T04:15:21.727Z,246.73
2019-02-18T04:17:53.429Z,255.27
2019-02-18T04:20:25.052Z,223.30
2019-02-18T04:22:56.658Z,256.50
2019-02-18T04:25:28.271Z,231.30
2019-02-18T04:27:59.896Z,207.33
2019-02-18T04:30:31.489Z,205.17
2019-02-18T04:33:03.177Z,193.97
2019-02-18T04:35:34.794Z,182.87
2019-02-18T04:38:06.401Z,190.80
2019-02-18T04:40:38.234Z,169.17
2019-02-18T04:43:09.898Z,166.33
2019-02-18T04:45:41.509Z,175.93
2019-02-18T04:48:13.125Z,170.70
2019-02-18T04:50:44.726Z,169.07
2019-02-18T04:53:16.407Z,173.37
2019-02-18T04:55:48.014Z,163.13
2019-02-18T04:58:19.638Z,162.23
2019-02-18T05:00:51.253Z,155.77
2019-02-18T05:03:22.844Z,161.30
2019-02-18T05:05:54.437Z,152.60
2019-02-18T05:08:26.059Z,165.80
2019-02-18T05:10:57.665Z,163.63
2019-02-18T05:13:29.359Z,177.73
2019-02-18T05:16:01.007Z,160.47
2019-02-18T05:18:32.686Z,195.93
2019-02-18T05:21:04.289Z,210.57
2019-02-18T05:23:35.993Z,209.20
2019-02-18T05:26:07.586Z,299.70
2019-02-18T05:28:39.231Z,362.70
2019-02-18T05:31:11.042Z,289.07
2019-02-18T05:33:42.668Z,270.43
2019-02-18T05:36:14.273Z,262.77
2019-02-18T05:38:45.872Z,243.90
2019-02-18T05:41:17.472Z,263.23
2019-02-18T05:43:49.081Z,263.87
2019-02-18T05:46:20.687Z,263.10
2019-02-18T05:48:52.320Z,212.43
2019-02-18T05:51:23.935Z,226.13
2019-02-18T05:53:55.618Z,213.60
2019-02-18T05:56:27.220Z,205.33
2019-02-18T05:58:58.858Z,198.83
2019-02-18T06:01:31.749Z,232.87
2019-02-18T06:04:03.418Z,244.47
2019-02-18T06:06:35.040Z,245.33
2019-02-18T06:09:07.105Z,248.33
2019-02-18T06:11:38.766Z,238.83
2019-02-18T06:14:10.416Z,255.87
2019-02-18T06:16:42.198Z,247.47
2019-02-18T06:19:14.082Z,274.40
2019-02-18T06:21:45.692Z,304.87
2019-02-18T06:24:17.300Z,322.97
2019-02-18T06:26:48.925Z,279.23
2019-02-18T06:29:20.533Z,275.07
2019-02-18T06:31:52.145Z,263.97
2019-02-18T06:34:23.791Z,263.57
2019-02-18T06:36:55.549Z,246.00
2019-02-18T06:39:27.172Z,255.10
2019-02-18T06:41:58.828Z,252.80
2019-02-18T06:44:42.084Z,262.30
2019-02-18T06:47:19.424Z,268.60
2019-02-18T06:49:51.197Z,269.33
2019-02-18T06:52:22.935Z,269.47
2019-02-18T06:54:54.632Z,248.40
2019-02-18T06:57:37.482Z,253.23
2019-02-18T07:00:22.331Z,257.90
2019-02-18T07:03:11.336Z,247.87
2019-02-18T07:06:01.940Z,264.03
2019-02-18T07:08:52.520Z,269.07
2019-02-18T07:11:31.356Z,262.37
2019-02-18T07:14:02.951Z,258.77
2019-02-18T07:16:34.562Z,243.90
2019-02-18T07:19:06.205Z,268.87
2019-02-18T07:21:38.125Z,266.20
2019-02-18T07:24:09.844Z,259.17
2019-02-18T07:26:43.117Z,247.87
2019-02-18T07:29:14.813Z,235.13
2019-02-18T07:31:46.505Z,225.30
2019-02-18T07:34:18.110Z,219.53
2019-02-18T07:36:52.069Z,219.53
2019-02-18T07:39:30.125Z,207.27
2019-02-18T07:42:02.363Z,207.00
2019-02-18T07:44:34.241Z,194.57
2019-02-18T07:47:11.059Z,203.17
2019-02-18T07:49:44.513Z,201.37
2019-02-18T07:52:16.758Z,195.97
2019-02-18T07:54:49.217Z,205.07
2019-02-18T07:57:21.189Z,214.93
2019-02-18T07:59:53.425Z,212.60
2019-02-18T08:02:25.616Z,224.37
2019-02-18T08:04:57.296Z,216.43
2019-02-18T08:07:30.608Z,221.57
2019-02-18T08:10:11.682Z,228.33
2019-02-18T08:12:37.681Z,225.43
2019-02-18T08:15:10.289Z,201.57
2019-02-18T08:17:42.272Z,209.03
2019-02-18T08:20:15.236Z,225.37
2019-02-18T08:22:47.292Z,222.43
2019-02-18T08:25:19.262Z,209.10
2019-02-18T08:27:51.138Z,240.07
2019-02-18T08:30:23.390Z,234.77
2019-02-18T08:32:55.224Z,235.03
2019-02-18T08:35:27.230Z,233.10
2019-02-18T08:37:59.599Z,240.03
2019-02-18T08:40:31.478Z,255.23
2019-02-18T08:43:03.235Z,259.10
2019-02-18T08:45:35.930Z,242.93
2019-02-18T08:48:09.828Z,241.20
2019-02-18T08:50:43.980Z,240.97
2019-02-18T08:53:16.352Z,269.97
2019-02-18T08:55:49.805Z,285.80
2019-02-18T08:58:22.733Z,289.83
2019-02-18T09:01:02.290Z,289.23
2019-02-18T09:03:28.091Z,240.77
2019-02-18T09:05:59.770Z,245.13
2019-02-18T09:08:31.463Z,187.00
2019-02-18T09:11:03.087Z,196.93
2019-02-18T09:13:34.701Z,190.90
2019-02-18T09:16:06.718Z,215.13
2019-02-18T09:18:38.543Z,200.53
2019-02-18T09:21:10.164Z,186.77
2019-02-18T09:23:55.949Z,181.83
2019-02-18T09:26:27.616Z,132.37
2019-02-18T09:28:59.617Z,142.27
2019-02-18T09:31:33.836Z,116.83
2019-02-18T09:34:07.077Z,115.47
2019-02-18T09:36:39.901Z,117.33
2019-02-18T09:39:17.854Z,133.47
2019-02-18T09:41:51.245Z,131.60
2019-02-18T09:44:24.716Z,137.97
2019-02-18T09:46:56.913Z,109.27
2019-02-18T09:49:29.892Z,111.57
2019-02-18T09:52:01.909Z,115.90
2019-02-18T09:54:33.973Z,108.27
2019-02-18T09:57:05.661Z,99.80
2019-02-18T09:59:38.023Z,120.07
2019-02-18T10:02:11.102Z,114.00
2019-02-18T10:04:42.781Z,126.37
2019-02-18T10:07:15.961Z,120.50
2019-02-18T10:09:49.605Z,109.47
2019-02-18T10:12:22.369Z,111.37
2019-02-18T10:14:54.768Z,104.30
2019-02-18T10:17:27.300Z,100.37
2019-02-18T10:19:59.505Z,98.53
2019-02-18T10:22:31.981Z,101.37
2019-02-18T10:25:03.808Z,95.00
2019-02-18T10:27:35.492Z,101.43
2019-02-18T10:30:09.004Z,93.03
2019-02-18T10:32:43.991Z,101.33
2019-02-18T10:35:16.121Z,186.90
2019-02-18T10:37:55.092Z,135.20
2019-02-18T10:40:36.623Z,108.17
2019-02-18T10:43:09.335Z,108.10
2019-02-18T10:45:42.456Z,94.27
2019-02-18T10:48:15.000Z,93.23
2019-02-18T10:50:47.994Z,88.13
2019-02-18T10:53:19.658Z,85.83
2019-02-18T10:55:51.365Z,85.50
2019-02-18T10:58:23.052Z,93.73
2019-02-18T11:00:54.803Z,107.87
2019-02-18T11:03:26.839Z,98.13
2019-02-18T11:05:58.652Z,85.03
2019-02-18T11:08:30.381Z,83.37
2019-02-18T11:11:04.235Z,78.63
2019-02-18T11:13:36.062Z,85.03
2019-02-18T11:16:08.548Z,97.17
2019-02-18T11:18:40.454Z,84.87
2019-02-18T11:21:12.730Z,91.90
2019-02-18T11:23:44.687Z,85.50
2019-02-18T11:26:17.542Z,80.43
2019-02-18T11:28:49.280Z,70.80
2019-02-18T11:31:21.412Z,79.83
2019-02-18T11:33:53.300Z,78.03
2019-02-18T11:36:26.410Z,80.27
2019-02-18T11:38:58.564Z,75.37
2019-02-18T11:41:30.313Z,75.53
2019-02-18T11:44:02.606Z,78.77
2019-02-18T11:46:34.608Z,74.10
2019-02-18T11:49:06.808Z,69.27
2019-02-18T11:51:39.378Z,72.00
2019-02-18T11:54:11.162Z,63.13
2019-02-18T11:56:43.047Z,75.17
2019-02-18T11:59:23.916Z,69.70
2019-02-18T12:01:50.411Z,61.53
2019-02-18T12:04:23.935Z,63.17
2019-02-18T12:06:56.672Z,68.10
2019-02-18T12:09:28.892Z,59.17
2019-02-18T12:12:00.890Z,54.40
2019-02-18T12:14:32.917Z,67.97
2019-02-18T12:17:05.896Z,61.57
2019-02-18T12:19:39.478Z,62.07
2019-02-18T12:22:12.181Z,56.53
2019-02-18T12:24:44.140Z,50.40
2019-02-18T12:27:16.038Z,58.30
2019-02-18T12:29:47.874Z,46.77
2019-02-18T12:32:20.378Z,60.87
2019-02-18T12:34:52.221Z,60.43
2019-02-18T12:37:23.975Z,64.07
2019-02-18T12:39:55.600Z,56.03
2019-02-18T12:42:28.785Z,53.47
2019-02-18T12:45:02.236Z,59.87
2019-02-18T12:47:35.846Z,56.17
2019-02-18T12:50:09.364Z,55.03
2019-02-18T12:52:42.088Z,65.90
2019-02-18T12:55:15.377Z,69.60
2019-02-18T12:57:47.887Z,62.80
2019-02-18T13:00:19.777Z,61.03
2019-02-18T13:02:53.499Z,68.03
2019-02-18T13:05:26.812Z,59.80
2019-02-18T13:07:58.925Z,62.10
2019-02-18T13:10:34.774Z,53.33
2019-02-18T13:13:04.279Z,51.77
2019-02-18T13:15:36.082Z,55.50
2019-02-18T13:18:09.267Z,58.17
2019-02-18T13:20:41.765Z,63.27
2019-02-18T13:23:13.855Z,62.20
2019-02-18T13:25:47.593Z,61.37
2019-02-18T13:28:19.374Z,59.27
2019-02-18T13:30:51.107Z,60.73
2019-02-18T13:33:22.856Z,107.17
2019-02-18T13:35:55.555Z,72.30
2019-02-18T13:38:28.981Z,65.23
2019-02-18T13:41:02.750Z,74.83
2019-02-18T13:43:34.749Z,76.13
2019-02-18T13:46:06.749Z,71.73
2019-02-18T13:48:38.918Z,60.10
2019-02-18T13:51:11.015Z,70.80
2019-02-18T13:53:42.860Z,65.67
2019-02-18T13:56:14.553Z,58.13
2019-02-18T13:58:47.850Z,61.77
2019-02-18T14:01:20.054Z,65.30
2019-02-18T14:03:52.086Z,208.70
2019-02-18T14:06:24.047Z,75.73
2019-02-18T14:08:56.171Z,68.77
2019-02-18T14:11:28.498Z,63.27
2019-02-18T14:14:02.639Z,63.63
2019-02-18T14:16:34.365Z,72.33
2019-02-18T14:19:06.077Z,68.87
2019-02-18T14:21:39.248Z,64.03
2019-02-18T14:24:14.849Z,63.87
2019-02-18T14:26:46.468Z,64.07
2019-02-18T14:29:18.139Z,66.17
2019-02-18T14:31:49.822Z,77.93
2019-02-18T14:34:22.105Z,91.33
2019-02-18T14:36:54.507Z,63.83
2019-02-18T14:39:27.140Z,73.00
2019-02-18T14:42:01.609Z,61.03
2019-02-18T14:44:35.141Z,71.07
2019-02-18T14:47:09.765Z,115.67
2019-02-18T14:49:44.837Z,154.33
2019-02-18T14:52:20.517Z,155.07
2019-02-18T14:54:54.129Z,141.50
2019-02-18T14:57:26.509Z,115.87
2019-02-18T15:00:00.300Z,131.67
2019-02-18T15:02:35.302Z,91.67
2019-02-18T15:05:09.333Z,77.07
2019-02-18T15:07:43.774Z,84.73
2019-02-18T15:10:17.583Z,86.00
2019-02-18T15:12:53.206Z,125.30
2019-02-18T15:15:25.470Z,118.37
2019-02-18T15:17:57.393Z,97.23
2019-02-18T15:20:29.569Z,105.63
2019-02-18T15:23:03.055Z,98.03
2019-02-18T15:25:36.463Z,109.47
2019-02-18T15:28:08.817Z,90.50
2019-02-18T15:30:41.596Z,135.23
2019-02-18T15:33:13.589Z,249.20
2019-02-18T15:35:45.340Z,130.97
2019-02-18T15:38:17.512Z,126.40
2019-02-18T15:40:49.290Z,126.73
2019-02-18T15:43:21.594Z,121.10
2019-02-18T15:45:53.427Z,123.70
2019-02-18T15:48:26.213Z,139.40
2019-02-18T15:50:57.935Z,155.63
2019-02-18T15:53:30.679Z,169.13
2019-02-18T15:56:02.442Z,221.40
2019-02-18T15:58:35.772Z,228.10
2019-02-18T16:01:08.314Z,266.00
2019-02-18T16:03:40.057Z,247.43
2019-02-18T16:06:12.829Z,294.40
2019-02-18T16:08:45.987Z,286.93
2019-02-18T16:11:17.691Z,288.47
2019-02-18T16:13:49.385Z,299.67
2019-02-18T16:16:21.031Z,368.20
2019-02-18T16:18:52.928Z,335.30
2019-02-18T16:21:24.617Z,267.73
2019-02-18T16:23:56.311Z,246.17
2019-02-18T16:26:28.025Z,296.13
2019-02-18T16:28:59.638Z,223.20
2019-02-18T16:31:31.436Z,206.87
2019-02-18T16:34:03.416Z,192.47
2019-02-18T16:36:35.105Z,208.30
2019-02-18T16:39:07.233Z,199.83
2019-02-18T16:41:39.230Z,357.60
2019-02-18T16:44:11.068Z,296.63
2019-02-18T16:46:42.960Z,443.47
2019-02-18T16:49:14.869Z,424.73
2019-02-18T16:51:46.506Z,322.13
2019-02-18T16:54:18.136Z,307.93
2019-02-18T16:56:49.984Z,366.47
2019-02-18T16:59:21.688Z,282.43
2019-02-18T17:01:53.320Z,249.63
2019-02-18T17:04:27.305Z,266.40
2019-02-18T17:06:58.282Z,258.50
2019-02-18T17:09:29.894Z,260.03
2019-02-18T17:12:01.569Z,275.27
2019-02-18T17:14:33.467Z,285.80
2019-02-18T17:17:05.204Z,274.13
2019-02-18T17:19:36.816Z,309.30
2019-02-18T17:22:08.820Z,360.13
2019-02-18T17:24:40.577Z,333.00
2019-02-18T17:27:12.226Z,308.57
2019-02-18T17:29:43.920Z,308.27
2019-02-18T17:32:15.567Z,339.60
2019-02-18T17:34:47.240Z,322.93
2019-02-18T17:37:18.866Z,306.40
2019-02-18T17:39:50.597Z,336.60
2019-02-18T17:42:22.246Z,364.70
2019-02-18T17:44:53.955Z,377.47
2019-02-18T17:47:26.702Z,374.67
2019-02-18T17:49:58.956Z,421.63
2019-02-18T17:52:30.795Z,421.63
2019-02-18T17:55:03.491Z,493.83
2019-02-18T17:57:35.216Z,544.10
2019-02-18T18:00:08.269Z,485.00
2019-02-18T18:02:40.266Z,523.20
2019-02-18T18:05:12.234Z,578.27
2019-02-18T18:07:46.233Z,592.60
2019-02-18T18:10:19.356Z,611.70
2019-02-18T18:12:51.207Z,572.40
2019-02-18T18:15:23.038Z,715.83
2019-02-18T18:17:54.868Z,710.77
2019-02-18T18:20:26.794Z,658.10
2019-02-18T18:22:59.021Z,596.73
2019-02-18T18:25:30.824Z,566.23
2019-02-18T18:28:02.578Z,571.67
2019-02-18T18:30:34.382Z,609.63
2019-02-18T18:33:06.234Z,600.30
2019-02-18T18:35:42.880Z,572.33
2019-02-18T18:38:15.441Z,542.43
2019-02-18T18:40:47.140Z,513.63
2019-02-18T18:43:19.010Z,518.40
2019-02-18T18:45:51.787Z,477.10
2019-02-18T18:48:23.740Z,505.63
2019-02-18T18:50:55.486Z,505.93
2019-02-18T18:53:27.104Z,574.23
2019-02-18T18:55:58.749Z,549.47
2019-02-18T18:58:30.734Z,536.83
2019-02-18T19:01:02.492Z,527.67
2019-02-18T19:03:34.395Z,535.63
2019-02-18T19:06:06.018Z,525.33
2019-02-18T19:08:38.122Z,560.50
2019-02-18T19:11:10.548Z,571.93
2019-02-18T19:13:42.436Z,576.87
2019-02-18T19:16:14.233Z,590.80
2019-02-18T19:18:48.188Z,610.33
2019-02-18T19:21:19.798Z,719.47
2019-02-18T19:23:51.590Z,751.57
2019-02-18T19:26:23.258Z,699.87
2019-02-18T19:28:55.153Z,644.83
2019-02-18T19:31:26.768Z,642.57
2019-02-18T19:33:59.393Z,661.43
2019-02-18T19:36:32.245Z,646.50
2019-02-18T19:39:04.526Z,627.80
2019-02-18T19:41:37.625Z,655.87
2019-02-18T19:44:09.661Z,723.50
2019-02-18T19:46:41.636Z,771.67
2019-02-18T19:49:13.447Z,806.30
2019-02-18T19:51:45.562Z,828.70
2019-02-18T19:54:17.240Z,820.87
2019-02-18T19:56:48.852Z,865.47
2019-02-18T19:59:20.480Z,919.77
2019-02-18T20:01:52.284Z,929.70
2019-02-18T20:04:23.996Z,815.83
2019-02-18T20:06:55.610Z,830.17
2019-02-18T20:09:27.604Z,863.90
2019-02-18T20:11:59.273Z,868.23
2019-02-18T20:14:31.192Z,849.53
2019-02-18T20:17:02.849Z,811.87
2019-02-18T20:19:34.846Z,818.30
2019-02-18T20:22:06.850Z,788.30
2019-02-18T20:24:39.600Z,803.17
2019-02-18T20:27:11.285Z,816.57
2019-02-18T20:29:43.219Z,809.33
2019-02-18T20:32:15.018Z,786.33
2019-02-18T20:34:46.745Z,772.37
2019-02-18T20:37:18.562Z,794.43
2019-02-18T20:39:50.182Z,787.33
2019-02-18T20:42:21.952Z,791.47
2019-02-18T20:44:54.470Z,769.13
2019-02-18T20:47:26.297Z,791.90
2019-02-18T20:49:58.295Z,757.27
2019-02-18T20:52:30.222Z,756.83
2019-02-18T20:55:01.948Z,774.60
2019-02-18T20:57:33.616Z,723.60
2019-02-18T21:00:07.385Z,739.77
2019-02-18T21:02:39.492Z,745.50
2019-02-18T21:05:11.194Z,713.87
2019-02-18T21:07:43.031Z,696.47
2019-02-18T21:10:16.344Z,693.03
2019-02-18T21:12:48.111Z,698.30
2019-02-18T21:15:20.173Z,665.90
2019-02-18T21:17:51.924Z,681.40
2019-02-18T21:20:23.599Z,669.73
2019-02-18T21:22:55.295Z,612.53
2019-02-18T21:25:27.231Z,568.53
2019-02-18T21:27:59.135Z,540.53
2019-02-18T21:30:30.869Z,531.17
2019-02-18T21:33:02.492Z,526.43
2019-02-18T21:35:34.191Z,540.40
2019-02-18T21:38:06.379Z,522.27
2019-02-18T21:40:38.147Z,526.07
2019-02-18T21:43:10.572Z,518.90
2019-02-18T21:45:42.288Z,534.33
2019-02-18T21:48:15.464Z,580.60
2019-02-18T21:50:47.245Z,562.90
2019-02-18T21:53:19.644Z,681.30
2019-02-18T21:55:51.404Z,704.43
2019-02-18T21:58:23.389Z,731.00
2019-02-18T22:00:55.016Z,731.43
2019-02-18T22:03:26.651Z,688.03
2019-02-18T22:05:58.369Z,661.87
2019-02-18T22:08:30.012Z,669.17
2019-02-18T22:11:02.072Z,640.53
2019-02-18T22:13:33.673Z,669.53
2019-02-18T22:16:05.380Z,649.30
2019-02-18T22:18:37.050Z,631.13
2019-02-18T22:21:08.681Z,573.20
2019-02-18T22:23:40.306Z,556.47
2019-02-18T22:26:11.953Z,516.87
2019-02-18T22:28:43.764Z,401.30
2019-02-18T22:31:15.390Z,523.87
2019-02-18T22:33:47.075Z,491.10
2019-02-18T22:36:18.712Z,520.00
2019-02-18T22:38:50.310Z,501.70
2019-02-18T22:41:21.903Z,440.47
2019-02-18T22:43:53.522Z,462.83
2019-02-18T22:46:25.216Z,498.13
2019-02-18T22:48:56.892Z,536.70
2019-02-18T22:51:28.871Z,527.20
2019-02-18T22:54:00.478Z,450.80
2019-02-18T22:56:33.059Z,453.97
2019-02-18T22:59:04.657Z,395.17
2019-02-18T23:01:36.302Z,346.80
2019-02-18T23:04:08.235Z,305.20
2019-02-18T23:06:39.917Z,326.37
2019-02-18T23:09:12.766Z,357.70
2019-02-18T23:11:44.455Z,348.47
2019-02-18T23:14:16.135Z,447.00
2019-02-18T23:16:48.268Z,401.33
2019-02-18T23:19:19.908Z,397.17
2019-02-18T23:21:51.599Z,414.87
2019-02-18T23:24:23.316Z,413.60
2019-02-18T23:26:55.016Z,375.87
2019-02-18T23:29:26.952Z,383.13
2019-02-18T23:31:58.629Z,409.43
2019-02-18T23:34:30.288Z,390.03
2019-02-18T23:37:02.888Z,390.87
2019-02-18T23:39:34.548Z,364.07
2019-02-18T23:42:06.160Z,351.97
2019-02-18T23:44:37.818Z,342.27
2019-02-18T23:47:09.833Z,288.97
2019-02-18T23:49:41.451Z,310.50
2019-02-18T23:52:13.186Z,353.83
2019-02-18T23:54:44.805Z,330.57
2019-02-18T23:57:16.477Z,305.90
2019-02-18T23:59:48.157Z,342.70
